createdAt,value
2019-01-16T00:02:08.766Z,1.30
2019-01-16T00:04:55.847Z,1.30
2019-01-16T00:07:45.002Z,1.10
2019-01-16T00:10:18.261Z,1.00
2019-01-16T00:12:57.633Z,1.10
2019-01-16T00:15:44.771Z,1.03
2019-01-16T00:18:21.482Z,1.17
2019-01-16T00:20:55.313Z,1.03
2019-01-16T00:23:32.711Z,1.10
2019-01-16T00:26:06.806Z,0.90
2019-01-16T00:28:53.883Z,0.90
2019-01-16T00:31:41.256Z,1.00
2019-01-16T00:34:17.687Z,1.33
2019-01-16T00:37:04.630Z,0.90
2019-01-16T00:39:35.346Z,1.07
2019-01-16T00:42:08.747Z,1.10
2019-01-16T00:44:55.766Z,1.10
2019-01-16T00:47:26.611Z,1.10
2019-01-16T00:49:57.447Z,1.00
2019-01-16T00:52:43.273Z,1.00
2019-01-16T00:55:14.129Z,0.87
2019-01-16T00:57:48.986Z,1.10
2019-01-16T01:00:22.544Z,1.00
2019-01-16T01:02:53.351Z,1.30
2019-01-16T01:05:26.868Z,0.80
2019-01-16T01:08:16.801Z,1.20
2019-01-16T01:10:53.867Z,0.90
2019-01-16T01:13:40.819Z,1.20
2019-01-16T01:16:26.949Z,1.17
2019-01-16T01:19:02.177Z,0.90
2019-01-16T01:21:33.013Z,0.90
2019-01-16T01:24:06.803Z,1.10
2019-01-16T01:26:37.482Z,0.90
2019-01-16T01:29:17.289Z,0.97
2019-01-16T01:31:50.697Z,0.83
2019-01-16T01:34:27.005Z,0.87
2019-01-16T01:37:06.374Z,1.00
2019-01-16T01:39:53.205Z,1.00
2019-01-16T01:42:26.613Z,0.90
2019-01-16T01:45:09.599Z,0.80
2019-01-16T01:47:56.778Z,0.73
2019-01-16T01:50:39.471Z,1.03
2019-01-16T01:53:13.087Z,0.90
2019-01-16T01:55:49.488Z,0.70
2019-01-16T01:58:23.194Z,0.87
2019-01-16T02:00:53.877Z,0.70
2019-01-16T02:03:38.833Z,0.83
2019-01-16T02:06:09.703Z,0.90
2019-01-16T02:08:55.522Z,0.60
2019-01-16T02:11:42.687Z,0.70
2019-01-16T02:14:16.131Z,0.70
2019-01-16T02:16:47.015Z,0.60
2019-01-16T02:19:17.740Z,0.80
2019-01-16T02:21:57.152Z,0.80
2019-01-16T02:24:46.078Z,0.80
2019-01-16T02:27:33.450Z,0.50
2019-01-16T02:30:06.822Z,0.87
2019-01-16T02:32:49.544Z,0.50
2019-01-16T02:35:36.755Z,0.80
2019-01-16T02:38:10.562Z,0.67
2019-01-16T02:40:44.046Z,0.90
2019-01-16T02:43:24.072Z,0.77
2019-01-16T02:45:54.803Z,0.70
2019-01-16T02:48:25.475Z,0.67
2019-01-16T02:51:00.470Z,0.70
2019-01-16T02:53:39.713Z,0.70
2019-01-16T02:56:10.613Z,1.43
2019-01-16T02:58:57.890Z,0.80
2019-01-16T03:01:31.493Z,0.80
2019-01-16T03:04:17.688Z,0.80
2019-01-16T03:07:03.320Z,0.67
2019-01-16T03:09:48.981Z,0.87
2019-01-16T03:12:19.690Z,0.70
2019-01-16T03:14:50.468Z,0.90
2019-01-16T03:17:37.254Z,0.93
2019-01-16T03:20:24.022Z,0.80
2019-01-16T03:23:06.738Z,0.70
2019-01-16T03:25:40.359Z,0.93
2019-01-16T03:28:11.046Z,0.90
2019-01-16T03:30:57.770Z,0.70
2019-01-16T03:33:44.610Z,0.80
2019-01-16T03:36:18.325Z,0.97
2019-01-16T03:38:55.186Z,0.90
2019-01-16T03:41:28.550Z,0.90
2019-01-16T03:44:02.203Z,0.90
2019-01-16T03:46:45.938Z,0.90
2019-01-16T03:49:32.859Z,0.70
2019-01-16T03:52:03.814Z,1.10
2019-01-16T03:54:43.828Z,0.67
2019-01-16T03:57:21.357Z,0.90
2019-01-16T03:59:52.185Z,0.90
2019-01-16T04:02:25.599Z,1.03
2019-01-16T04:04:59.441Z,1.17
2019-01-16T04:07:35.908Z,0.80
2019-01-16T04:10:18.755Z,0.90
2019-01-16T04:12:52.251Z,1.00
2019-01-16T04:15:23.002Z,1.00
2019-01-16T04:17:53.670Z,0.90
2019-01-16T04:20:35.780Z,1.00
2019-01-16T04:23:09.870Z,1.00
2019-01-16T04:25:55.913Z,0.83
2019-01-16T04:28:29.063Z,1.00
2019-01-16T04:31:12.844Z,1.13
2019-01-16T04:33:46.253Z,1.00
2019-01-16T04:36:33.443Z,0.73
2019-01-16T04:39:19.431Z,0.73
2019-01-16T04:42:06.447Z,0.80
2019-01-16T04:44:43.387Z,0.90
2019-01-16T04:47:16.972Z,0.83
2019-01-16T04:49:50.509Z,0.93
2019-01-16T04:52:21.265Z,0.87
2019-01-16T04:55:07.288Z,0.90
2019-01-16T04:57:38.055Z,0.93
2019-01-16T05:00:14.317Z,1.00
2019-01-16T05:02:47.671Z,0.90
2019-01-16T05:05:25.481Z,0.90
2019-01-16T05:07:56.428Z,0.77
2019-01-16T05:10:37.082Z,0.90
2019-01-16T05:13:19.928Z,0.73
2019-01-16T05:16:09.056Z,1.00
2019-01-16T05:18:51.732Z,0.97
2019-01-16T05:21:22.393Z,1.10
2019-01-16T05:23:56.271Z,0.80
2019-01-16T05:26:42.029Z,0.90
2019-01-16T05:29:15.656Z,1.20
2019-01-16T05:31:58.812Z,1.20
2019-01-16T05:34:35.409Z,0.90
2019-01-16T05:37:09.495Z,1.00
2019-01-16T05:39:45.933Z,1.13
2019-01-16T05:42:16.691Z,1.03
2019-01-16T05:44:47.414Z,1.10
2019-01-16T05:47:21.168Z,0.90
2019-01-16T05:50:06.840Z,1.23
2019-01-16T05:52:37.940Z,0.83
2019-01-16T05:55:15.834Z,0.93
2019-01-16T05:57:55.601Z,1.00
2019-01-16T06:00:45.080Z,0.80
2019-01-16T06:03:34.264Z,0.77
2019-01-16T06:06:05.289Z,0.90
2019-01-16T06:08:54.264Z,0.80
2019-01-16T06:11:31.443Z,1.00
2019-01-16T06:14:11.162Z,0.73
2019-01-16T06:16:47.761Z,0.83
2019-01-16T06:19:18.460Z,0.90
2019-01-16T06:21:52.288Z,0.83
2019-01-16T06:24:25.554Z,0.80
2019-01-16T06:27:19.741Z,0.90
2019-01-16T06:29:50.906Z,0.60
2019-01-16T06:32:27.332Z,0.73
2019-01-16T06:35:19.914Z,0.90
2019-01-16T06:37:53.438Z,0.60
2019-01-16T06:40:26.552Z,0.87
2019-01-16T06:42:57.820Z,0.83
2019-01-16T06:45:29.978Z,0.70
2019-01-16T06:48:20.607Z,0.90
2019-01-16T06:50:54.422Z,0.73
2019-01-16T06:53:31.305Z,0.97
2019-01-16T06:56:05.169Z,0.60
2019-01-16T06:58:49.584Z,0.87
2019-01-16T07:01:21.919Z,0.70
2019-01-16T07:04:07.002Z,0.60
2019-01-16T07:06:38.414Z,0.90
2019-01-16T07:09:32.461Z,0.70
2019-01-16T07:12:25.174Z,0.70
2019-01-16T07:15:17.088Z,0.70
2019-01-16T07:17:49.715Z,0.60
2019-01-16T07:20:42.844Z,0.63
2019-01-16T07:23:14.507Z,0.70
2019-01-16T07:25:50.202Z,0.70
2019-01-16T07:28:41.078Z,0.80
2019-01-16T07:31:17.522Z,0.60
2019-01-16T07:33:54.791Z,0.60
2019-01-16T07:36:26.736Z,0.63
2019-01-16T07:39:19.535Z,0.80
2019-01-16T07:41:54.729Z,0.93
2019-01-16T07:44:30.347Z,0.77
2019-01-16T07:47:04.465Z,0.80
2019-01-16T07:49:39.843Z,0.60
2019-01-16T07:52:21.679Z,0.80
2019-01-16T07:55:09.435Z,0.80
2019-01-16T07:57:47.892Z,0.70
2019-01-16T08:00:26.293Z,0.80
2019-01-16T08:03:06.622Z,0.97
2019-01-16T08:05:53.742Z,0.70
2019-01-16T08:08:42.146Z,0.70
2019-01-16T08:11:30.882Z,0.57
2019-01-16T08:14:15.479Z,0.80
2019-01-16T08:17:08.308Z,0.80
2019-01-16T08:19:53.803Z,1.00
2019-01-16T08:22:30.525Z,0.80
2019-01-16T08:25:18.081Z,1.07
2019-01-16T08:28:03.854Z,1.10
2019-01-16T08:31:02.327Z,1.00
2019-01-16T08:33:55.265Z,1.00
2019-01-16T08:36:29.344Z,1.07
2019-01-16T08:39:23.860Z,1.37
2019-01-16T08:42:06.574Z,1.90
2019-01-16T08:45:01.041Z,2.27
2019-01-16T08:47:36.173Z,1.30
2019-01-16T08:50:12.854Z,1.57
2019-01-16T08:52:59.498Z,1.47
2019-01-16T08:59:03.301Z,1.20
2019-01-16T09:04:59.821Z,1.20
2019-01-16T09:08:02.001Z,1.30
2019-01-16T09:10:54.758Z,1.30
2019-01-16T09:13:37.885Z,1.50
2019-01-16T09:16:13.790Z,1.40
2019-01-16T09:18:52.011Z,1.40
2019-01-16T09:21:40.435Z,1.60
2019-01-16T09:24:39.669Z,1.50
2019-01-16T09:27:39.144Z,1.70
2019-01-16T09:30:29.587Z,1.93
2019-01-16T09:33:15.349Z,1.67
2019-01-16T09:36:11.701Z,1.33
2019-01-16T09:39:01.797Z,1.83
2019-01-16T09:44:48.271Z,1.50
2019-01-16T09:47:28.745Z,1.33
2019-01-16T09:50:17.761Z,1.60
2019-01-16T09:53:04.365Z,1.83
2019-01-16T09:55:57.709Z,1.50
2019-01-16T09:58:46.997Z,1.90
2019-01-16T10:01:36.678Z,1.60
2019-01-16T10:04:18.242Z,1.77
2019-01-16T10:06:52.999Z,1.90
2019-01-16T10:09:39.207Z,1.87
2019-01-16T10:12:18.979Z,2.07
2019-01-16T10:15:07.127Z,1.93
2019-01-16T10:17:55.104Z,1.90
2019-01-16T10:20:26.207Z,1.67
2019-01-16T10:23:12.748Z,2.00
2019-01-16T10:25:44.169Z,1.70
2019-01-16T10:28:39.130Z,1.87
2019-01-16T10:31:35.057Z,2.27
2019-01-16T10:34:28.518Z,2.53
2019-01-16T10:37:05.883Z,2.27
2019-01-16T10:39:48.098Z,2.07
2019-01-16T10:42:30.641Z,2.23
2019-01-16T10:45:08.749Z,2.10
2019-01-16T10:47:57.420Z,2.33
2019-01-16T10:50:49.593Z,2.53
2019-01-16T10:53:25.504Z,2.80
2019-01-16T10:55:57.037Z,2.47
2019-01-16T10:58:34.118Z,2.27
2019-01-16T11:01:12.065Z,2.70
2019-01-16T11:04:19.129Z,2.30
2019-01-16T11:06:53.913Z,2.20
2019-01-16T11:09:20.767Z,2.30
2019-01-16T11:12:06.897Z,2.40
2019-01-16T11:14:44.382Z,2.20
2019-01-16T11:17:18.030Z,2.30
2019-01-16T11:20:00.512Z,2.10
2019-01-16T11:22:49.121Z,2.00
2019-01-16T11:25:38.944Z,2.10
2019-01-16T11:28:19.798Z,1.90
2019-01-16T11:31:10.792Z,1.80
2019-01-16T11:33:47.855Z,1.80
2019-01-16T11:36:18.841Z,1.93
2019-01-16T11:39:11.478Z,2.50
2019-01-16T11:41:48.986Z,2.00
2019-01-16T11:44:27.369Z,2.00
2019-01-16T11:46:59.018Z,2.30
2019-01-16T11:49:53.545Z,2.30
2019-01-16T11:52:42.222Z,2.10
2019-01-16T11:55:35.567Z,1.90
2019-01-16T11:58:29.524Z,1.97
2019-01-16T12:01:04.365Z,2.27
2019-01-16T12:03:48.008Z,2.00
2019-01-16T12:06:30.226Z,2.03
2019-01-16T12:09:07.748Z,2.30
2019-01-16T12:11:53.787Z,2.10
2019-01-16T12:14:40.184Z,1.70
2019-01-16T12:17:29.894Z,1.87
2019-01-16T12:20:03.190Z,2.13
2019-01-16T12:22:34.348Z,1.97
2019-01-16T12:25:22.064Z,2.43
2019-01-16T12:28:03.998Z,2.30
2019-01-16T12:30:47.050Z,2.07
2019-01-16T12:33:33.386Z,2.13
2019-01-16T12:36:10.185Z,2.10
2019-01-16T12:39:01.276Z,2.50
2019-01-16T12:41:41.208Z,2.13
2019-01-16T12:44:12.411Z,2.10
2019-01-16T12:46:55.379Z,2.23
2019-01-16T12:49:34.868Z,2.40
2019-01-16T12:52:18.638Z,2.33
2019-01-16T12:54:53.401Z,2.47
2019-01-16T12:57:27.138Z,2.43
2019-01-16T13:00:17.370Z,2.40
2019-01-16T13:02:49.670Z,2.33
2019-01-16T13:05:39.881Z,2.77
2019-01-16T13:08:13.551Z,2.20
2019-01-16T13:11:04.078Z,2.30
2019-01-16T13:13:44.774Z,2.17
2019-01-16T13:16:32.255Z,2.40
2019-01-16T13:19:09.231Z,2.50
2019-01-16T13:21:51.577Z,2.40
2019-01-16T13:24:40.863Z,2.53
2019-01-16T13:27:32.268Z,2.43
2019-01-16T13:30:06.923Z,2.53
2019-01-16T13:32:46.632Z,2.50
2019-01-16T13:35:22.529Z,2.67
2019-01-16T13:38:06.276Z,2.70
2019-01-16T13:40:56.753Z,2.20
2019-01-16T13:43:31.573Z,2.50
2019-01-16T13:46:07.081Z,2.57
2019-01-16T13:48:41.199Z,2.20
2019-01-16T13:51:26.077Z,2.63
2019-01-16T13:53:57.488Z,2.40
2019-01-16T13:56:44.817Z,2.30
2019-01-16T13:59:31.973Z,2.20
2019-01-16T14:02:03.457Z,2.47
2019-01-16T14:04:39.243Z,2.43
2019-01-16T14:07:13.190Z,2.47
2019-01-16T14:10:08.130Z,2.70
2019-01-16T14:12:57.815Z,2.70
2019-01-16T14:15:54.876Z,2.70
2019-01-16T14:18:51.045Z,2.50
2019-01-16T14:21:30.078Z,2.37
2019-01-16T14:24:11.727Z,2.33
2019-01-16T14:27:01.112Z,2.60
2019-01-16T14:29:47.990Z,2.40
2019-01-16T14:32:41.053Z,2.20
2019-01-16T14:35:20.472Z,2.50
2019-01-16T14:37:54.187Z,2.43
2019-01-16T14:40:42.769Z,2.27
2019-01-16T14:43:38.742Z,2.33
2019-01-16T14:46:14.275Z,2.40
2019-01-16T14:48:49.828Z,2.33
2019-01-16T14:51:42.598Z,2.83
2019-01-16T14:54:13.868Z,2.93
2019-01-16T14:56:51.951Z,2.92
2019-01-16T14:59:41.658Z,2.90
2019-01-16T15:02:15.031Z,2.60
2019-01-16T15:04:48.692Z,2.60
2019-01-16T15:07:36.797Z,2.80
2019-01-16T15:10:25.108Z,2.10
2019-01-16T15:13:05.449Z,2.50
2019-01-16T15:15:56.804Z,2.40
2019-01-16T15:18:36.772Z,2.33
2019-01-16T15:21:26.692Z,2.67
2019-01-16T15:24:07.210Z,2.50
2019-01-16T15:26:38.887Z,2.90
2019-01-16T15:29:16.198Z,3.10
2019-01-16T15:32:01.295Z,2.77
2019-01-16T15:34:38.764Z,2.57
2019-01-16T15:37:22.176Z,3.17
2019-01-16T15:40:13.600Z,2.40
2019-01-16T15:43:01.546Z,2.37
2019-01-16T15:45:48.783Z,2.37
2019-01-16T15:48:43.214Z,2.77
2019-01-16T15:51:33.222Z,2.40
2019-01-16T15:54:35.190Z,2.87
2019-01-16T15:57:07.537Z,2.67
2019-01-16T15:59:42.522Z,2.60
2019-01-16T16:02:34.761Z,3.10
2019-01-16T16:05:13.540Z,3.60
2019-01-16T16:07:51.678Z,2.70
2019-01-16T16:10:46.362Z,3.10
2019-01-16T16:13:16.805Z,3.23
2019-01-16T16:16:01.125Z,3.13
2019-01-16T16:18:51.077Z,2.70
2019-01-16T16:21:23.623Z,3.00
2019-01-16T16:24:02.565Z,2.80
2019-01-16T16:26:56.643Z,3.00
2019-01-16T16:29:43.348Z,2.67
2019-01-16T16:32:29.537Z,2.83
2019-01-16T16:35:04.454Z,3.10
2019-01-16T16:37:53.858Z,2.73
2019-01-16T16:40:45.807Z,2.70
2019-01-16T16:43:19.404Z,3.20
2019-01-16T16:45:56.355Z,2.87
2019-01-16T16:48:31.273Z,3.27
2019-01-16T16:51:11.714Z,2.90
2019-01-16T16:53:45.650Z,2.73
2019-01-16T16:56:43.901Z,3.00
2019-01-16T16:59:28.350Z,3.47
2019-01-16T17:02:07.698Z,3.13
2019-01-16T17:04:41.099Z,3.27
2019-01-16T17:10:25.143Z,3.63
2019-01-16T17:13:17.307Z,3.67
2019-01-16T17:15:53.408Z,2.93
2019-01-16T17:18:40.124Z,3.23
2019-01-16T17:21:15.304Z,3.50
2019-01-16T17:23:58.339Z,3.20
2019-01-16T17:26:43.274Z,3.10
2019-01-16T17:29:28.388Z,2.60
2019-01-16T17:32:08.884Z,2.90
2019-01-16T17:34:44.722Z,3.00
2019-01-16T17:37:26.896Z,2.90
2019-01-16T17:40:04.464Z,2.73
2019-01-16T17:42:57.094Z,3.33
2019-01-16T17:45:46.270Z,3.20
2019-01-16T17:48:24.739Z,3.07
2019-01-16T17:51:19.034Z,3.27
2019-01-16T17:54:07.312Z,3.40
2019-01-16T17:56:43.916Z,3.40
2019-01-16T17:59:34.118Z,3.23
2019-01-16T18:02:22.134Z,2.97
2019-01-16T18:04:57.054Z,3.80
2019-01-16T18:07:54.380Z,3.60
2019-01-16T18:10:30.192Z,3.47
2019-01-16T18:13:18.522Z,3.93
2019-01-16T18:16:08.807Z,3.50
2019-01-16T18:18:51.450Z,3.63
2019-01-16T18:21:22.869Z,3.20
2019-01-16T18:24:04.187Z,3.10
2019-01-16T18:26:49.978Z,3.47
2019-01-16T18:29:34.156Z,3.50
2019-01-16T18:32:09.019Z,3.87
2019-01-16T18:34:46.673Z,3.27
2019-01-16T18:37:35.089Z,3.20
2019-01-16T18:40:27.478Z,3.47
2019-01-16T18:43:12.320Z,3.10
2019-01-16T18:45:58.995Z,3.63
2019-01-16T18:48:50.859Z,3.20
2019-01-16T18:51:23.822Z,3.53
2019-01-16T18:54:07.702Z,3.47
2019-01-16T18:56:48.923Z,3.47
2019-01-16T18:59:28.185Z,4.47
2019-01-16T19:02:24.060Z,4.10
2019-01-16T19:05:23.758Z,3.33
2019-01-16T19:08:16.079Z,2.73
2019-01-16T19:11:05.362Z,2.93
2019-01-16T19:13:47.601Z,3.60
2019-01-16T19:16:25.689Z,3.30
2019-01-16T19:18:57.764Z,4.80
2019-01-16T19:21:33.277Z,2.60
2019-01-16T19:24:13.496Z,3.20
2019-01-16T19:26:53.231Z,3.43
2019-01-16T19:29:47.304Z,3.10
2019-01-16T19:32:38.382Z,3.53
2019-01-16T19:35:30.631Z,3.13
2019-01-16T19:38:12.263Z,3.50
2019-01-16T19:40:58.463Z,2.80
2019-01-16T19:43:30.065Z,3.17
2019-01-16T19:46:17.149Z,3.43
2019-01-16T19:49:00.947Z,2.87
2019-01-16T19:51:54.912Z,5.50
2019-01-16T19:54:34.355Z,15.30
2019-01-16T19:57:41.043Z,3.37
2019-01-16T20:00:45.287Z,3.00
2019-01-16T20:03:06.982Z,3.07
2019-01-16T20:05:41.413Z,3.20
2019-01-16T20:08:17.616Z,2.60
2019-01-16T20:10:53.598Z,4.87
2019-01-16T20:13:42.228Z,3.17
2019-01-16T20:16:15.706Z,2.93
2019-01-16T20:18:50.552Z,2.80
2019-01-16T20:21:34.242Z,3.03
2019-01-16T20:24:23.788Z,3.27
2019-01-16T20:27:23.150Z,3.30
2019-01-16T20:30:00.558Z,2.87
2019-01-16T20:32:51.997Z,3.80
2019-01-16T20:35:38.514Z,3.53
2019-01-16T20:38:18.939Z,3.23
2019-01-16T20:40:53.694Z,3.60
2019-01-16T20:43:46.515Z,2.73
2019-01-16T20:46:24.109Z,2.70
2019-01-16T20:48:57.387Z,2.50
2019-01-16T20:51:34.359Z,2.90
2019-01-16T20:54:10.185Z,2.67
2019-01-16T20:56:48.216Z,3.10
2019-01-16T20:59:30.861Z,2.80
2019-01-16T21:02:15.071Z,3.00
2019-01-16T21:05:12.579Z,3.13
2019-01-16T21:07:46.967Z,2.87
2019-01-16T21:10:30.060Z,2.60
2019-01-16T21:13:10.851Z,3.23
2019-01-16T21:15:51.886Z,2.80
2019-01-16T21:18:21.360Z,2.83
2019-01-16T21:21:01.767Z,2.97
2019-01-16T21:23:32.964Z,2.73
2019-01-16T21:26:15.108Z,2.40
2019-01-16T21:29:00.791Z,2.87
2019-01-16T21:31:33.435Z,2.27
2019-01-16T21:34:26.509Z,2.20
2019-01-16T21:36:58.238Z,2.03
2019-01-16T21:39:46.736Z,1.93
2019-01-16T21:42:39.460Z,2.57
2019-01-16T21:48:19.961Z,2.63
2019-01-16T21:50:51.099Z,1.93
2019-01-16T21:53:41.347Z,2.63
2019-01-16T21:56:14.980Z,2.23
2019-01-16T21:58:51.104Z,2.13
2019-01-16T22:01:36.419Z,2.47
2019-01-16T22:04:19.797Z,1.97
2019-01-16T22:06:59.622Z,2.00
2019-01-16T22:09:57.887Z,2.10
2019-01-16T22:12:53.678Z,2.50
2019-01-16T22:15:27.699Z,1.93
2019-01-16T22:18:13.122Z,2.30
2019-01-16T22:20:53.176Z,1.93
2019-01-16T22:23:49.800Z,2.33
2019-01-16T22:26:23.463Z,1.80
2019-01-16T22:29:05.637Z,2.00
2019-01-16T22:32:02.462Z,2.27
2019-01-16T22:34:49.953Z,2.43
2019-01-16T22:37:23.529Z,2.00
2019-01-16T22:39:57.217Z,2.50
2019-01-16T22:42:53.627Z,2.57
2019-01-16T22:45:37.064Z,2.10
2019-01-16T22:48:08.197Z,2.20
2019-01-16T22:50:42.501Z,2.10
2019-01-16T22:53:17.899Z,2.43
2019-01-16T22:56:07.145Z,2.60
2019-01-16T22:58:54.989Z,2.30
2019-01-16T23:01:26.227Z,2.27
2019-01-16T23:03:59.483Z,2.13
2019-01-16T23:06:53.258Z,2.30
2019-01-16T23:09:38.535Z,1.93
2019-01-16T23:12:18.992Z,2.37
2019-01-16T23:14:50.134Z,2.20
2019-01-16T23:17:26.168Z,2.50
2019-01-16T23:20:13.617Z,2.30
2019-01-16T23:23:01.870Z,2.53
2019-01-16T23:25:34.477Z,2.67
2019-01-16T23:28:21.745Z,2.90
2019-01-16T23:31:07.930Z,2.40
2019-01-16T23:33:57.031Z,2.37
2019-01-16T23:36:45.896Z,2.40
2019-01-16T23:39:33.281Z,2.43
2019-01-16T23:42:04.461Z,2.50
2019-01-16T23:44:47.709Z,2.50
2019-01-16T23:47:30.930Z,2.27
2019-01-16T23:50:01.368Z,2.30
2019-01-16T23:52:41.011Z,2.60
2019-01-16T23:55:11.705Z,2.47
2019-01-16T23:57:59.222Z,2.30
